Strona główna
METAR-TAF:

METAR-TAF

Lotnisko :

Port lotniczy Ørsta/Volda

Ørsta-Volda, Norwegia

Szerokość geograficzna: 62-11N, Długość geograficzna: 006-04E, wysokość: 7 m

Aktualna obserwacja pogody

Raport powstał 16 minut temu, godzina 13:20 UTC
Wiatr 2 kt z kierunków zmiennych
Temperatura 21°C
Wilgotność 64%
Ciśnienie 1025 hPa
Widzialność 10 km lub więcej
Mało chmury na wysokości 2800 ft
Rozproszone chmury na wysokości 6100 ft

METAR: ENOV 111320Z VRB02KT 9999 FEW028 SCT061 21/14 Q1025 RMK WIND 2175FT 15003KT

czas: 15:36 (13:36 UTC)


TAF: brakujący

Obserwacja i prognoza pogody dla ponad 4000 lotnisk (raport METAR i TAF).

Dostępne stacje oznaczono żółtymi i czerwonymi punktami na mapie.

Najedź kursorem aby zobaczyć nazwę stacji.

Kliknij aby zobaczyć obserwacje i prognozy pogody.

Aby zmienić mapę: kliknij na zielony przycisk z czarnym krzyżykiem, aby powiększyć; na zielony przycisk z myślnikiem, aby pomniejszyć; na zielone strzałki, aby przejść do map sąsiednich.


METAR-TAF: